Time;durP1;ratioP1;P1;durP2;ratioP2;P2;SDS_P1;SDS_P2;PMS_P1;PMS_P2;Temp;Humidity;BMP_temperature;BMP_pressure;BME280_temperature;BME280_humidity;BME280_pressure;Samples;Min_cycle;Max_cycle;Signal;HPM_P1;HPM_P2
2023/08/22 00:00:14;;;;;;;4.78;2.42;;;19.00;99.90;;;;;;5088447;28;20260;-80
2023/08/22 00:02:41;;;;;;;4.95;2.13;;;19.00;99.90;;;;;;5103100;28;20197;-80
2023/08/22 00:05:09;;;;;;;4.47;2.50;;;19.10;99.90;;;;;;5113768;28;20204;-80
2023/08/22 00:07:36;;;;;;;3.90;2.58;;;19.10;99.90;;;;;;5118018;28;20197;-80
2023/08/22 00:10:04;;;;;;;4.43;2.35;;;19.10;99.90;;;;;;5099134;28;20236;-80
2023/08/22 00:12:31;;;;;;;6.72;2.67;;;19.10;99.90;;;;;;5109206;28;20205;-80
2023/08/22 00:14:58;;;;;;;4.78;2.40;;;19.20;99.90;;;;;;5110326;28;20234;-80
2023/08/22 00:17:25;;;;;;;5.22;2.38;;;19.10;99.90;;;;;;5100742;28;20208;-79
2023/08/22 00:19:52;;;;;;;3.50;2.17;;;19.10;99.90;;;;;;5111143;28;20278;-80
2023/08/22 00:22:19;;;;;;;4.53;2.40;;;19.00;99.90;;;;;;5102731;28;20216;-80
2023/08/22 00:24:45;;;;;;;7.00;2.22;;;19.00;99.90;;;;;;5102180;28;20205;-80
2023/08/22 00:27:14;;;;;;;5.75;2.30;;;18.90;99.90;;;;;;5119043;28;20206;-79
2023/08/22 00:29:40;;;;;;;5.25;2.70;;;18.80;99.90;;;;;;5117895;28;20220;-79
2023/08/22 00:32:07;;;;;;;4.95;2.33;;;18.70;99.90;;;;;;5118348;28;20205;-80
2023/08/22 00:34:34;;;;;;;5.47;2.30;;;18.60;99.90;;;;;;5109863;28;20205;-79
2023/08/22 00:37:01;;;;;;;4.78;2.47;;;18.60;99.90;;;;;;5104385;28;20208;-79
2023/08/22 00:39:27;;;;;;;4.05;2.70;;;18.70;99.90;;;;;;5105955;28;20769;-79
2023/08/22 00:41:54;;;;;;;6.57;2.75;;;18.80;99.90;;;;;;5096462;28;20206;-80
2023/08/22 00:44:22;;;;;;;6.10;2.50;;;18.80;99.90;;;;;;5096684;28;20559;-79
2023/08/22 00:46:49;;;;;;;5.10;2.30;;;18.70;99.90;;;;;;5096196;28;20201;-80
2023/08/22 00:49:16;;;;;;;5.97;2.40;;;18.70;99.90;;;;;;5097571;28;20259;-80
2023/08/22 00:51:44;;;;;;;6.80;2.55;;;18.60;99.90;;;;;;5104022;28;20204;-80
2023/08/22 00:54:11;;;;;;;4.43;2.08;;;18.40;99.90;;;;;;5108230;28;20212;-80
2023/08/22 00:56:38;;;;;;;5.70;3.10;;;18.20;99.90;;;;;;5105410;28;20324;-80
2023/08/22 00:59:05;;;;;;;5.65;2.65;;;18.40;99.90;;;;;;5105220;28;20221;-80
2023/08/22 01:01:33;;;;;;;7.32;2.50;;;18.50;99.90;;;;;;5104139;28;20201;-80
2023/08/22 01:04:00;;;;;;;4.50;2.63;;;18.50;99.90;;;;;;5096511;28;20201;-78
2023/08/22 01:06:42;;;;;;;4.75;2.95;;;18.60;99.90;;;;;;5093940;28;20202;-79
2023/08/22 01:09:18;;;;;;;4.72;2.42;;;18.60;99.90;;;;;;5103382;28;20221;-79
2023/08/22 01:11:48;;;;;;;2.80;2.50;;;18.70;99.90;;;;;;5097845;28;20675;-79
2023/08/22 01:14:20;;;;;;;3.08;2.58;;;18.80;99.90;;;;;;5091954;28;20263;-79
2023/08/22 01:16:49;;;;;;;5.80;2.60;;;18.80;99.90;;;;;;5093681;28;20209;-79
2023/08/22 01:19:18;;;;;;;4.70;2.63;;;18.80;99.90;;;;;;5095346;28;20213;-79
2023/08/22 01:21:52;;;;;;;6.55;2.72;;;18.80;99.90;;;;;;5099966;28;20209;-80
2023/08/22 01:24:19;;;;;;;5.72;2.65;;;18.70;99.90;;;;;;5100270;28;20221;-80
2023/08/22 01:26:47;;;;;;;3.78;2.63;;;18.80;99.90;;;;;;5094976;28;20208;-79
2023/08/22 01:29:19;;;;;;;6.07;2.10;;;18.90;99.90;;;;;;5091039;28;20257;-79
2023/08/22 01:31:52;;;;;;;4.25;2.38;;;18.90;99.90;;;;;;5100109;28;20209;-80
2023/08/22 01:34:23;;;;;;;7.47;2.70;;;18.90;99.90;;;;;;5092743;28;20671;-79
2023/08/22 01:36:54;;;;;;;4.53;2.33;;;18.70;99.90;;;;;;5097074;28;20201;-79
2023/08/22 01:39:21;;;;;;;3.25;2.30;;;18.60;99.90;;;;;;5104141;28;20221;-79
2023/08/22 01:41:49;;;;;;;6.03;2.50;;;18.70;99.90;;;;;;5115411;28;20199;-80
2023/08/22 01:44:16;;;;;;;5.28;2.85;;;18.60;99.90;;;;;;5092045;28;20204;-80
2023/08/22 01:46:42;;;;;;;4.82;2.85;;;18.50;99.90;;;;;;5113888;28;20203;-79
2023/08/22 01:49:09;;;;;;;6.20;2.63;;;18.50;99.90;;;;;;5098185;28;20217;-80
2023/08/22 01:51:36;;;;;;;5.15;2.72;;;18.60;99.90;;;;;;5105030;28;20206;-80
2023/08/22 01:54:04;;;;;;;6.00;2.60;;;18.70;99.90;;;;;;5100942;28;20207;-80
2023/08/22 01:56:31;;;;;;;5.55;2.60;;;18.70;99.90;;;;;;5117385;28;20208;-79
2023/08/22 01:58:58;;;;;;;4.75;2.72;;;18.80;99.90;;;;;;5113369;28;20223;-80
2023/08/22 02:01:25;;;;;;;4.63;3.28;;;18.80;99.90;;;;;;5096750;28;20197;-79
2023/08/22 02:03:51;;;;;;;7.18;3.20;;;18.80;99.90;;;;;;5100143;28;20201;-80
2023/08/22 02:06:18;;;;;;;6.25;2.85;;;18.70;99.90;;;;;;5102417;28;20208;-80
2023/08/22 02:08:45;;;;;;;5.18;3.28;;;18.80;99.90;;;;;;5096752;28;20221;-79
2023/08/22 02:11:13;;;;;;;4.65;2.35;;;18.90;99.90;;;;;;5101386;28;20220;-80
2023/08/22 02:13:40;;;;;;;3.63;2.53;;;18.70;99.90;;;;;;5111372;28;20208;-80
2023/08/22 02:16:07;;;;;;;6.93;2.40;;;18.50;99.90;;;;;;5110093;28;20217;-79
2023/08/22 02:18:34;;;;;;;3.30;2.70;;;18.40;99.90;;;;;;5092486;28;20202;-80
2023/08/22 02:21:00;;;;;;;4.22;2.75;;;18.40;99.90;;;;;;5105716;28;20201;-79
2023/08/22 02:23:27;;;;;;;3.95;2.70;;;18.30;99.90;;;;;;5099403;28;20198;-80
2023/08/22 02:25:54;;;;;;;4.07;2.72;;;18.40;99.90;;;;;;5105863;28;20677;-79
2023/08/22 02:28:22;;;;;;;3.80;2.60;;;18.40;99.90;;;;;;5100591;28;20283;-80
2023/08/22 02:30:54;;;;;;;3.00;2.55;;;18.40;99.90;;;;;;5116933;28;20231;-80
2023/08/22 02:33:21;;;;;;;3.72;2.60;;;18.30;99.90;;;;;;5110687;28;20209;-79
2023/08/22 02:35:48;;;;;;;6.03;2.72;;;18.30;99.90;;;;;;5090637;28;20316;-80
2023/08/22 02:38:15;;;;;;;3.30;2.05;;;18.30;99.90;;;;;;5097379;28;20213;-81
2023/08/22 02:40:42;;;;;;;4.80;2.30;;;18.30;99.90;;;;;;5098888;28;20218;-80
2023/08/22 02:43:09;;;;;;;4.57;2.40;;;18.30;99.90;;;;;;5090535;28;20209;-79
2023/08/22 02:45:38;;;;;;;4.85;2.70;;;18.40;99.90;;;;;;5091532;28;20198;-80
2023/08/22 02:48:06;;;;;;;4.70;2.70;;;18.50;99.90;;;;;;5098183;28;20193;-79
2023/08/22 02:50:33;;;;;;;5.80;2.83;;;18.60;99.90;;;;;;5098815;28;20236;-79
2023/08/22 02:52:59;;;;;;;4.53;2.90;;;18.50;99.90;;;;;;5094719;28;20201;-80
2023/08/22 02:55:26;;;;;;;7.85;3.22;;;18.70;99.90;;;;;;5098982;28;20205;-80
2023/08/22 02:57:53;;;;;;;6.45;3.10;;;18.80;99.90;;;;;;5105487;28;20583;-79
2023/08/22 03:00:20;;;;;;;4.68;3.42;;;18.80;99.90;;;;;;5100897;28;20218;-79
2023/08/22 03:02:48;;;;;;;7.25;3.42;;;18.70;99.90;;;;;;5115874;28;20201;-79
2023/08/22 03:05:15;;;;;;;7.35;3.58;;;18.50;99.90;;;;;;5112052;28;20241;-79
2023/08/22 03:07:42;;;;;;;7.57;4.07;;;18.50;99.90;;;;;;5103421;28;20201;-79
2023/08/22 03:10:09;;;;;;;6.15;3.35;;;18.60;99.90;;;;;;5106737;28;20640;-81
2023/08/22 03:12:36;;;;;;;9.45;3.88;;;18.60;99.90;;;;;;5103426;28;20208;-79
2023/08/22 03:15:03;;;;;;;10.98;4.28;;;18.40;99.90;;;;;;5122660;28;20738;-79
2023/08/22 03:17:30;;;;;;;8.95;3.55;;;18.40;99.90;;;;;;5092981;28;20230;-79
2023/08/22 03:19:58;;;;;;;6.45;3.80;;;18.40;99.90;;;;;;5106654;28;20236;-80
2023/08/22 03:22:25;;;;;;;11.60;5.68;;;18.30;99.90;;;;;;5110419;28;20193;-80
2023/08/22 03:24:52;;;;;;;8.68;5.47;;;18.20;99.90;;;;;;5123851;28;20201;-79
2023/08/22 03:27:19;;;;;;;8.32;5.07;;;18.40;99.90;;;;;;5111589;28;20284;-79
2023/08/22 03:29:46;;;;;;;4.82;3.72;;;18.30;99.90;;;;;;5117882;28;20225;-80
2023/08/22 03:32:12;;;;;;;5.43;3.10;;;18.60;99.90;;;;;;5127647;28;20260;-79
2023/08/22 03:34:39;;;;;;;10.40;3.97;;;18.50;99.90;;;;;;5125174;28;20619;-79
2023/08/22 03:37:07;;;;;;;7.70;2.85;;;18.20;99.90;;;;;;5125944;28;20197;-80
2023/08/22 03:39:34;;;;;;;4.53;3.08;;;18.10;99.90;;;;;;5117778;28;20214;-79
2023/08/22 03:42:01;;;;;;;4.10;2.60;;;18.30;99.90;;;;;;5126139;28;20260;-80
2023/08/22 03:44:28;;;;;;;6.35;3.00;;;18.30;99.90;;;;;;5125934;28;20680;-80
2023/08/22 03:46:54;;;;;;;6.03;3.00;;;18.40;99.90;;;;;;5126962;28;20264;-79
2023/08/22 03:49:21;;;;;;;4.93;2.88;;;18.20;99.90;;;;;;5111711;28;20638;-79
2023/08/22 03:51:48;;;;;;;5.05;3.15;;;18.10;99.90;;;;;;5106096;28;20580;-79
2023/08/22 03:54:16;;;;;;;6.28;3.20;;;18.00;99.90;;;;;;5119861;28;20219;-79
2023/08/22 03:56:43;;;;;;;5.43;2.80;;;18.00;99.90;;;;;;5126537;28;20197;-79
2023/08/22 03:59:09;;;;;;;6.07;2.90;;;17.90;99.90;;;;;;5112465;28;20221;-79
2023/08/22 04:01:36;;;;;;;6.13;3.25;;;18.00;99.90;;;;;;5105882;28;20250;-79
2023/08/22 04:04:03;;;;;;;5.20;2.88;;;18.10;99.90;;;;;;5105967;28;20194;-79
2023/08/22 04:06:30;;;;;;;5.93;3.63;;;18.10;99.90;;;;;;5114733;28;20285;-79
2023/08/22 04:08:57;;;;;;;10.02;3.30;;;18.20;99.90;;;;;;5107557;28;20253;-79
2023/08/22 04:11:25;;;;;;;6.82;3.10;;;18.20;99.90;;;;;;5125198;28;20208;-79
2023/08/22 04:13:51;;;;;;;6.97;3.72;;;18.20;99.90;;;;;;5125624;28;20203;-79
2023/08/22 04:16:18;;;;;;;3.92;2.72;;;18.20;99.90;;;;;;5125703;28;20291;-80
2023/08/22 04:18:45;;;;;;;5.32;2.65;;;18.10;99.90;;;;;;5125242;28;20221;-80
2023/08/22 04:21:12;;;;;;;5.13;2.80;;;18.10;99.90;;;;;;5126347;28;20274;-79
2023/08/22 04:23:39;;;;;;;4.38;2.75;;;18.10;99.90;;;;;;5116857;28;20202;-79
2023/08/22 04:26:06;;;;;;;5.80;2.58;;;18.00;99.90;;;;;;5111020;28;20201;-79
2023/08/22 04:28:36;;;;;;;4.15;3.17;;;17.90;99.90;;;;;;5104150;28;20265;-79
2023/08/22 04:31:03;;;;;;;5.15;3.10;;;18.20;99.90;;;;;;5104210;28;20224;-80
2023/08/22 04:33:30;;;;;;;7.32;2.83;;;18.20;99.90;;;;;;5108235;28;20201;-80
2023/08/22 04:35:57;;;;;;;6.47;3.00;;;18.20;99.90;;;;;;5103173;28;20206;-78
2023/08/22 04:38:24;;;;;;;7.85;3.17;;;18.20;99.90;;;;;;5101551;28;20229;-79
2023/08/22 04:40:50;;;;;;;4.47;2.83;;;18.20;99.90;;;;;;5090101;28;20202;-79
2023/08/22 04:43:17;;;;;;;5.60;3.13;;;18.30;99.90;;;;;;5109457;28;20212;-79
2023/08/22 04:45:45;;;;;;;5.93;2.92;;;18.20;99.90;;;;;;5103877;28;20207;-79
2023/08/22 04:48:12;;;;;;;4.95;2.75;;;18.40;99.90;;;;;;5107651;28;20662;-78
2023/08/22 04:50:39;;;;;;;4.78;3.30;;;18.40;99.90;;;;;;5123288;28;20924;-79
2023/08/22 04:53:06;;;;;;;4.70;3.10;;;18.30;99.90;;;;;;5107362;28;20212;-79
2023/08/22 04:55:33;;;;;;;7.85;3.10;;;18.40;99.90;;;;;;5125045;28;20196;-79
2023/08/22 04:58:00;;;;;;;6.03;3.08;;;18.50;99.90;;;;;;5114136;28;20209;-79
2023/08/22 05:00:27;;;;;;;6.30;3.30;;;18.50;99.90;;;;;;5102485;28;20220;-79
2023/08/22 05:02:55;;;;;;;4.85;3.00;;;18.40;99.90;;;;;;5102858;28;20277;-78
2023/08/22 05:05:21;;;;;;;7.03;2.97;;;18.40;99.90;;;;;;5103413;28;20208;-78
2023/08/22 05:07:48;;;;;;;4.10;2.70;;;18.40;99.90;;;;;;5101490;28;20291;-79
2023/08/22 05:10:15;;;;;;;5.65;2.67;;;18.50;99.90;;;;;;5119571;28;20705;-79
2023/08/22 05:12:42;;;;;;;6.05;2.80;;;18.40;99.90;;;;;;5102694;28;20288;-79
2023/08/22 05:15:10;;;;;;;4.95;2.55;;;18.50;99.90;;;;;;5117535;28;20202;-79
2023/08/22 05:17:37;;;;;;;4.93;2.80;;;18.60;99.90;;;;;;5110049;28;20714;-81
2023/08/22 05:20:10;;;;;;;7.55;3.13;;;18.60;99.90;;;;;;5120162;28;20229;-79
2023/08/22 05:22:37;;;;;;;4.60;2.72;;;18.60;99.90;;;;;;5111811;28;20225;-81
2023/08/22 05:25:05;;;;;;;5.78;2.80;;;18.60;99.90;;;;;;5092753;28;20212;-81
2023/08/22 05:27:32;;;;;;;4.20;2.75;;;18.70;99.90;;;;;;5096347;28;20198;-80
2023/08/22 05:29:59;;;;;;;3.28;2.60;;;18.60;99.90;;;;;;5102056;28;20232;-80
2023/08/22 05:32:26;;;;;;;5.53;2.80;;;18.70;99.90;;;;;;5105562;28;20206;-81
2023/08/22 05:34:53;;;;;;;4.20;2.47;;;18.80;99.90;;;;;;5119771;28;20201;-80
2023/08/22 05:37:21;;;;;;;5.90;2.60;;;18.80;99.90;;;;;;5124001;28;20288;-79
2023/08/22 05:39:48;;;;;;;6.20;2.88;;;18.70;99.90;;;;;;5114601;28;20244;-80
2023/08/22 05:42:14;;;;;;;4.90;3.22;;;18.90;99.90;;;;;;5122985;28;20197;-81
2023/08/22 05:44:41;;;;;;;5.32;3.05;;;18.70;99.90;;;;;;5107983;28;20198;-80
2023/08/22 05:47:10;;;;;;;6.30;2.83;;;18.90;99.90;;;;;;5104260;28;20201;-80
2023/08/22 05:49:37;;;;;;;4.82;3.13;;;19.10;99.90;;;;;;5102495;28;20681;-80
2023/08/22 05:52:05;;;;;;;6.97;2.50;;;19.00;99.90;;;;;;5099576;28;20209;-80
2023/08/22 05:54:33;;;;;;;7.10;2.92;;;19.10;99.90;;;;;;5102006;28;20209;-79
2023/08/22 05:57:00;;;;;;;6.40;2.88;;;19.20;99.90;;;;;;5100158;28;20203;-79
2023/08/22 05:59:27;;;;;;;7.60;3.03;;;19.10;99.90;;;;;;5101462;28;20699;-81
2023/08/22 06:01:54;;;;;;;5.05;2.38;;;19.20;99.90;;;;;;5101995;28;20265;-80
2023/08/22 06:04:21;;;;;;;6.50;3.13;;;19.20;99.90;;;;;;5105551;28;20212;-81
2023/08/22 06:06:48;;;;;;;8.77;2.78;;;19.20;99.90;;;;;;5114248;28;20202;-80
2023/08/22 06:09:14;;;;;;;5.80;2.60;;;19.00;99.90;;;;;;5104244;28;21060;-80
2023/08/22 06:11:42;;;;;;;6.13;2.92;;;19.10;99.90;;;;;;5107121;28;20596;-80
2023/08/22 06:14:09;;;;;;;6.05;2.88;;;19.10;99.90;;;;;;5101580;28;20209;-80
2023/08/22 06:16:36;;;;;;;7.25;3.05;;;19.10;99.90;;;;;;5103199;28;20197;-80
2023/08/22 06:19:03;;;;;;;3.90;2.40;;;19.00;99.90;;;;;;5119627;28;20221;-81
2023/08/22 06:21:29;;;;;;;5.75;2.50;;;19.10;99.90;;;;;;5106072;28;20216;-80
2023/08/22 06:23:57;;;;;;;5.07;2.47;;;19.20;99.90;;;;;;5111331;28;20212;-78
2023/08/22 06:26:24;;;;;;;7.78;3.28;;;19.20;99.90;;;;;;5110876;28;20198;-80
2023/08/22 06:28:52;;;;;;;4.97;2.78;;;19.20;99.90;;;;;;5102139;28;20221;-80
2023/08/22 06:31:19;;;;;;;6.07;2.90;;;19.40;99.90;;;;;;5102040;28;20246;-79
2023/08/22 06:33:45;;;;;;;5.57;2.60;;;19.40;99.90;;;;;;5110208;28;20213;-81
2023/08/22 06:36:12;;;;;;;4.47;2.50;;;19.40;99.90;;;;;;5117130;28;20205;-79
2023/08/22 06:38:39;;;;;;;5.00;2.60;;;19.40;99.90;;;;;;5110158;28;20281;-80
2023/08/22 06:41:07;;;;;;;7.95;3.42;;;19.40;99.90;;;;;;5106087;28;20569;-81
2023/08/22 06:43:34;;;;;;;4.72;2.63;;;19.40;99.90;;;;;;5111277;28;20205;-80
2023/08/22 06:46:02;;;;;;;3.83;3.00;;;19.50;99.90;;;;;;5104006;28;20262;-81
2023/08/22 06:48:29;;;;;;;6.38;3.03;;;19.50;99.90;;;;;;5118229;28;20477;-81
2023/08/22 06:50:56;;;;;;;7.20;2.80;;;19.50;99.90;;;;;;5127554;28;20220;-79
2023/08/22 06:53:22;;;;;;;5.45;3.17;;;19.60;99.90;;;;;;5118345;28;20203;-79
2023/08/22 06:55:49;;;;;;;3.80;2.45;;;19.60;99.90;;;;;;5111646;28;20810;-79
2023/08/22 06:58:16;;;;;;;6.50;2.75;;;19.60;99.90;;;;;;5107785;28;20215;-79
2023/08/22 07:00:43;;;;;;;3.40;2.70;;;19.90;99.90;;;;;;5107724;28;20240;-80
2023/08/22 07:03:12;;;;;;;6.72;3.05;;;20.00;99.90;;;;;;5113861;28;20229;-79
2023/08/22 07:05:38;;;;;;;6.00;3.10;;;20.00;99.90;;;;;;5110719;28;20201;-79
2023/08/22 07:08:05;;;;;;;6.38;3.38;;;20.10;99.90;;;;;;5111153;28;20201;-80
2023/08/22 07:10:34;;;;;;;8.05;3.15;;;20.10;99.90;;;;;;5110993;28;20655;-80
2023/08/22 07:13:00;;;;;;;5.63;2.88;;;20.30;99.90;;;;;;5108457;28;20201;-80
2023/08/22 07:15:27;;;;;;;7.95;3.38;;;21.20;99.90;;;;;;5107898;28;20198;-80
2023/08/22 07:17:54;;;;;;;7.15;3.17;;;21.00;99.90;;;;;;5104205;28;20203;-80
2023/08/22 07:20:22;;;;;;;5.88;3.03;;;20.80;99.90;;;;;;5110331;28;20213;-80
2023/08/22 07:22:49;;;;;;;8.85;3.25;;;20.80;99.90;;;;;;5118590;28;20201;-80
2023/08/22 07:25:16;;;;;;;8.15;3.40;;;20.90;99.90;;;;;;5105588;28;20197;-81
2023/08/22 07:27:42;;;;;;;6.93;2.85;;;21.00;99.90;;;;;;5099198;28;20214;-81
2023/08/22 07:30:10;;;;;;;3.58;2.80;;;21.00;99.90;;;;;;5113368;28;20225;-80
2023/08/22 07:32:37;;;;;;;5.30;2.90;;;21.10;99.90;;;;;;5118376;28;20397;-81
2023/08/22 07:35:04;;;;;;;4.55;2.47;;;21.20;99.90;;;;;;5107110;28;20313;-79
2023/08/22 07:37:32;;;;;;;8.00;3.00;;;21.40;99.90;;;;;;5097803;28;20208;-80
2023/08/22 07:39:59;;;;;;;6.13;3.08;;;21.50;99.90;;;;;;5097468;28;20228;-79
2023/08/22 07:42:26;;;;;;;3.88;2.53;;;21.60;99.90;;;;;;5098051;28;20194;-81
2023/08/22 07:44:53;;;;;;;5.53;2.78;;;21.90;99.90;;;;;;5107768;28;20212;-80
2023/08/22 07:47:19;;;;;;;5.40;2.92;;;21.90;99.90;;;;;;5090677;28;20214;-79
2023/08/22 07:49:46;;;;;;;9.27;2.65;;;21.80;99.90;;;;;;5096871;28;20606;-81
2023/08/22 07:52:13;;;;;;;6.88;2.90;;;21.80;99.90;;;;;;5097385;28;20702;-80
2023/08/22 07:54:41;;;;;;;6.90;2.78;;;21.70;99.90;;;;;;5103740;28;20718;-80
2023/08/22 07:57:08;;;;;;;11.10;2.83;;;21.90;99.90;;;;;;5095955;28;20644;-81
2023/08/22 07:59:35;;;;;;;4.72;2.78;;;22.10;99.90;;;;;;5113638;28;20225;-82
2023/08/22 08:02:02;;;;;;;12.15;2.75;;;22.20;99.90;;;;;;5093008;28;20212;-83
2023/08/22 08:04:29;;;;;;;8.05;3.03;;;22.30;99.90;;;;;;5105315;28;20251;-82
2023/08/22 08:06:55;;;;;;;9.07;2.58;;;22.30;99.90;;;;;;5096637;28;20210;-83
2023/08/22 08:09:22;;;;;;;7.63;3.17;;;22.40;99.90;;;;;;5106616;28;20244;-83
2023/08/22 08:11:50;;;;;;;6.35;2.83;;;22.30;99.90;;;;;;5108421;28;20217;-82
2023/08/22 08:14:17;;;;;;;6.97;2.80;;;22.40;99.90;;;;;;5114539;28;20665;-82
2023/08/22 08:16:44;;;;;;;5.22;2.88;;;22.30;99.90;;;;;;5103725;28;20225;-83
2023/08/22 08:19:13;;;;;;;7.82;2.78;;;22.20;99.90;;;;;;5093377;28;20732;-81
2023/08/22 08:21:40;;;;;;;5.43;2.47;;;22.50;99.90;;;;;;5104865;28;20198;-83
2023/08/22 08:24:07;;;;;;;5.25;2.55;;;22.70;99.90;;;;;;5099781;28;20209;-83
2023/08/22 08:26:34;;;;;;;3.55;2.47;;;22.80;99.90;;;;;;5108594;28;20204;-84
2023/08/22 08:29:02;;;;;;;3.17;2.55;;;22.80;99.90;;;;;;5111959;28;20243;-83
2023/08/22 08:31:29;;;;;;;5.60;3.10;;;22.90;99.90;;;;;;5115874;28;20216;-82
2023/08/22 08:33:56;;;;;;;4.00;2.63;;;23.10;99.90;;;;;;5098242;28;20207;-84
2023/08/22 08:36:23;;;;;;;5.05;2.60;;;23.10;99.90;;;;;;5095001;28;20204;-83
2023/08/22 08:38:49;;;;;;;4.13;2.60;;;23.20;99.90;;;;;;5100998;28;20320;-82
2023/08/22 08:41:20;;;;;;;3.53;2.65;;;23.40;99.90;;;;;;5113886;28;20293;-83
2023/08/22 08:43:48;;;;;;;5.38;2.70;;;23.70;99.90;;;;;;5102142;28;20498;-84
2023/08/22 08:46:16;;;;;;;7.03;2.80;;;23.90;99.90;;;;;;5099849;28;20210;-83
2023/08/22 08:48:45;;;;;;;6.43;2.95;;;24.00;99.90;;;;;;5100271;28;20524;-83
2023/08/22 08:51:12;;;;;;;6.38;2.85;;;24.10;99.90;;;;;;5102841;28;20427;-82
2023/08/22 08:53:40;;;;;;;6.82;2.33;;;24.40;99.90;;;;;;5091030;28;20205;-83
2023/08/22 08:56:09;;;;;;;5.15;2.20;;;24.50;99.90;;;;;;5095129;28;20223;-83
2023/08/22 08:58:38;;;;;;;7.93;2.65;;;24.50;99.90;;;;;;5094210;28;20235;-81
2023/08/22 09:01:06;;;;;;;5.10;2.47;;;24.50;99.90;;;;;;5087690;28;20224;-83
2023/08/22 09:03:35;;;;;;;5.57;2.72;;;24.50;99.90;;;;;;5102995;28;20206;-83
2023/08/22 09:06:01;;;;;;;4.30;2.30;;;24.60;99.90;;;;;;5104989;28;20702;-83
2023/08/22 09:08:28;;;;;;;4.53;2.63;;;24.60;99.90;;;;;;5115843;28;20685;-83
2023/08/22 09:10:54;;;;;;;3.50;2.33;;;24.70;99.90;;;;;;5100850;28;20217;-83
2023/08/22 09:13:28;;;;;;;7.13;2.60;;;24.80;99.90;;;;;;5113753;28;20284;-83
2023/08/22 09:16:01;;;;;;;4.75;2.92;;;24.90;99.90;;;;;;5115115;28;20212;-84
2023/08/22 09:18:28;;;;;;;5.32;2.50;;;25.30;99.90;;;;;;5095264;28;20209;-81
2023/08/22 09:21:03;;;;;;;6.28;3.00;;;25.30;99.90;;;;;;5095063;28;20214;-83
2023/08/22 09:23:31;;;;;;;6.22;2.25;;;25.30;99.90;;;;;;5105746;28;20207;-83
2023/08/22 09:25:58;;;;;;;6.32;2.28;;;25.40;99.90;;;;;;5115598;28;20197;-82
2023/08/22 09:28:25;;;;;;;3.42;2.22;;;25.50;99.90;;;;;;5115304;28;20201;-83
2023/08/22 09:30:53;;;;;;;5.57;2.40;;;25.70;99.90;;;;;;5115185;28;20704;-82
2023/08/22 09:33:20;;;;;;;5.00;2.50;;;26.10;99.90;;;;;;5114903;28;20208;-83
2023/08/22 09:35:48;;;;;;;3.47;2.45;;;26.60;99.90;;;;;;5110660;28;20323;-83
2023/08/22 09:38:16;;;;;;;5.07;2.72;;;27.00;99.90;;;;;;5102868;28;20578;-83
2023/08/22 09:40:51;;;;;;;2.90;2.13;;;27.40;99.90;;;;;;5114564;28;20220;-83
2023/08/22 09:43:19;;;;;;;4.90;2.30;;;27.50;99.90;;;;;;5114651;28;20209;-82
2023/08/22 09:45:46;;;;;;;4.75;2.00;;;28.00;99.90;;;;;;5114198;28;20224;-84
2023/08/22 09:48:19;;;;;;;3.58;2.17;;;27.70;99.90;;;;;;5114350;28;20585;-83
2023/08/22 09:50:49;;;;;;;4.32;2.70;;;27.70;99.90;;;;;;5114380;28;20729;-84
2023/08/22 09:53:20;;;;;;;6.13;2.35;;;27.60;99.90;;;;;;5117610;28;20223;-79
2023/08/22 09:55:48;;;;;;;4.38;2.33;;;27.80;99.90;;;;;;5104369;28;20217;-80
2023/08/22 09:58:15;;;;;;;3.95;2.45;;;28.00;99.90;;;;;;5104293;28;20205;-80
2023/08/22 10:00:44;;;;;;;4.53;2.35;;;28.00;99.90;;;;;;5124580;28;20304;-79
2023/08/22 10:03:12;;;;;;;5.60;2.60;;;27.90;99.90;;;;;;5124192;28;20203;-80
2023/08/22 10:05:40;;;;;;;4.20;2.60;;;27.70;99.90;;;;;;5124828;28;20201;-79
2023/08/22 10:08:07;;;;;;;4.25;2.35;;;27.80;99.90;;;;;;5124749;28;20205;-80
2023/08/22 10:10:36;;;;;;;4.82;2.70;;;27.60;99.90;;;;;;5122571;28;20235;-81
2023/08/22 10:13:05;;;;;;;6.82;2.65;;;27.30;99.90;;;;;;5122842;28;20758;-80
2023/08/22 10:15:33;;;;;;;3.25;2.28;;;27.30;99.90;;;;;;5122374;28;20201;-80
2023/08/22 10:18:00;;;;;;;3.28;2.42;;;27.50;99.90;;;;;;5122772;28;20235;-80
2023/08/22 10:20:27;;;;;;;4.38;2.80;;;27.20;99.90;;;;;;5122436;28;20710;-80
2023/08/22 10:22:53;;;;;;;6.75;2.70;;;27.20;99.90;;;;;;5123449;28;20203;-79
2023/08/22 10:25:20;;;;;;;6.38;2.67;;;27.30;99.90;;;;;;5122896;28;20284;-80
2023/08/22 10:27:49;;;;;;;6.47;2.60;;;27.70;99.90;;;;;;5122176;28;20466;-80
2023/08/22 10:30:20;;;;;;;4.00;2.30;;;27.70;99.90;;;;;;5122910;28;20225;-80
2023/08/22 10:33:05;;;;;;;6.38;2.45;;;27.70;99.90;;;;;;5102162;28;20281;-80
2023/08/22 10:35:31;;;;;;;6.88;3.05;;;28.10;99.90;;;;;;5102654;28;20515;-80
2023/08/22 10:37:59;;;;;;;5.55;2.47;;;27.00;99.90;;;;;;5102142;28;20288;-80
2023/08/22 10:40:30;;;;;;;3.92;2.28;;;27.10;99.90;;;;;;5099031;28;20221;-84
2023/08/22 10:43:06;;;;;;;5.05;2.35;;;27.00;99.90;;;;;;5092291;28;20202;-83
2023/08/22 10:45:41;;;;;;;4.80;2.30;;;27.20;99.90;;;;;;5101834;28;20219;-84
2023/08/22 10:48:11;;;;;;;4.47;2.58;;;27.10;99.90;;;;;;5098955;28;20600;-83
2023/08/22 10:50:41;;;;;;;4.03;2.15;;;26.40;99.90;;;;;;5103446;28;20365;-83
2023/08/22 10:53:22;;;;;;;4.57;2.08;;;27.20;99.90;;;;;;5088596;28;20585;-84
2023/08/22 10:55:49;;;;;;;3.97;2.03;;;27.40;99.90;;;;;;5106014;28;20204;-82
2023/08/22 10:58:36;;;;;;;4.63;2.70;;;27.70;99.90;;;;;;5097261;28;20202;-84
2023/08/22 11:01:06;;;;;;;3.45;1.85;;;27.70;99.90;;;;;;5101955;28;20297;-84
2023/08/22 11:03:34;;;;;;;7.53;1.70;;;27.80;99.90;;;;;;5102024;28;20197;-83
2023/08/22 11:06:01;;;;;;;3.65;1.90;;;27.80;99.90;;;;;;5105678;28;20209;-84
2023/08/22 11:08:29;;;;;;;6.15;2.45;;;27.40;99.90;;;;;;5086886;28;20224;-83
2023/08/22 11:10:58;;;;;;;4.60;2.28;;;27.00;99.90;;;;;;5093879;28;20210;-84
2023/08/22 11:13:38;;;;;;;7.53;2.83;;;26.90;99.90;;;;;;5093147;28;20217;-82
2023/08/22 11:16:09;;;;;;;5.25;2.10;;;26.90;99.90;;;;;;5093551;28;20209;-82
2023/08/22 11:18:36;;;;;;;3.92;1.90;;;26.90;99.90;;;;;;5085478;28;20205;-82
2023/08/22 11:21:03;;;;;;;2.75;1.60;;;27.40;99.90;;;;;;5088769;28;20202;-83
2023/08/22 11:23:32;;;;;;;4.93;1.90;;;27.70;99.90;;;;;;5091820;28;20200;-83
2023/08/22 11:26:00;;;;;;;7.30;1.65;;;27.70;99.90;;;;;;5113505;28;20200;-84
2023/08/22 11:28:31;;;;;;;3.22;1.70;;;27.30;99.90;;;;;;5112835;28;20205;-84
2023/08/22 11:31:00;;;;;;;2.85;1.90;;;27.30;99.90;;;;;;5093681;28;20623;-82
2023/08/22 11:33:34;;;;;;;3.28;1.80;;;27.20;99.90;;;;;;5097533;28;20229;-85
2023/08/22 11:36:01;;;;;;;4.90;1.73;;;27.20;99.90;;;;;;5097578;28;20201;-83
2023/08/22 11:38:28;;;;;;;5.65;1.88;;;27.20;99.90;;;;;;5094146;28;20279;-81
2023/08/22 11:40:56;;;;;;;6.68;1.90;;;27.00;99.90;;;;;;5097266;28;20198;-82
2023/08/22 11:43:23;;;;;;;4.78;2.17;;;27.50;99.90;;;;;;5096588;28;20208;-81
2023/08/22 11:45:49;;;;;;;5.82;1.95;;;27.20;99.90;;;;;;5095418;28;20201;-82
2023/08/22 11:48:18;;;;;;;4.32;1.85;;;27.10;99.90;;;;;;5096133;28;20452;-82
2023/08/22 11:50:45;;;;;;;3.92;1.90;;;27.10;99.90;;;;;;5091165;28;20618;-81
2023/08/22 11:53:12;;;;;;;3.45;1.80;;;27.20;99.90;;;;;;5082078;28;20222;-81
2023/08/22 11:55:41;;;;;;;2.15;1.92;;;26.90;99.90;;;;;;5086228;28;20284;-82
2023/08/22 11:58:12;;;;;;;4.70;1.98;;;26.80;99.90;;;;;;5102388;28;20250;-82
2023/08/22 12:00:39;;;;;;;5.53;1.98;;;26.70;99.90;;;;;;5108792;28;20275;-84
2023/08/22 12:03:06;;;;;;;4.90;2.00;;;26.50;99.90;;;;;;5102747;28;20205;-84
2023/08/22 12:05:36;;;;;;;3.08;2.00;;;26.50;99.90;;;;;;5097153;28;20284;-85
2023/08/22 12:08:17;;;;;;;3.38;1.90;;;26.20;99.90;;;;;;5111261;28;20207;-84
2023/08/22 12:10:45;;;;;;;3.15;2.10;;;26.30;99.90;;;;;;5107975;28;20221;-81
2023/08/22 12:13:14;;;;;;;2.92;2.05;;;26.30;99.90;;;;;;5107639;28;20304;-84
2023/08/22 12:15:42;;;;;;;6.10;2.50;;;26.30;99.90;;;;;;5116931;28;20204;-84
2023/08/22 12:18:09;;;;;;;6.43;2.25;;;26.20;99.90;;;;;;5110337;28;20568;-82
2023/08/22 12:20:39;;;;;;;5.63;2.13;;;26.30;99.90;;;;;;5105358;28;20225;-82
2023/08/22 12:23:06;;;;;;;5.15;2.00;;;26.70;99.90;;;;;;5097000;28;20193;-83
2023/08/22 12:25:34;;;;;;;3.35;1.77;;;27.20;99.90;;;;;;5105626;28;20213;-83
2023/08/22 12:28:02;;;;;;;2.88;1.80;;;26.90;99.90;;;;;;5112183;28;20565;-84
2023/08/22 12:30:30;;;;;;;5.10;2.22;;;27.10;98.10;;;;;;5095170;28;20694;-83
2023/08/22 12:32:57;;;;;;;5.28;2.40;;;27.00;99.90;;;;;;5102914;28;20217;-84
2023/08/22 12:35:23;;;;;;;5.18;2.30;;;26.60;86.50;;;;;;5096030;28;20201;-82
2023/08/22 12:37:52;;;;;;;3.03;1.48;;;26.70;98.50;;;;;;5112283;28;20209;-81
2023/08/22 12:40:18;;;;;;;2.88;1.70;;;26.90;90.80;;;;;;5102690;28;20251;-81
2023/08/22 12:42:46;;;;;;;4.63;1.60;;;26.60;55.50;;;;;;5099332;28;20201;-85
2023/08/22 12:45:13;;;;;;;2.80;1.55;;;26.90;66.80;;;;;;5106635;28;20337;-83
2023/08/22 12:47:40;;;;;;;3.85;1.35;;;26.80;56.20;;;;;;5104391;28;20692;-83